Sparrevohn LRRS Airport Sparrevohn US
ICAO: PASV
IATA:
Category: Medium
Scheduled Services:

Elevation: 1585 ft
TransAlt. 18000 ft.

Airport Communications:
ANCHORAGE CNTR:134.3
KENAI RDO:122.5
CTAF/UNICOM:126.2

PASV Zoom In..

If you have problems with the map follow the link
https://www.worldairports.se/pages/airport.php?
ICAO=PASV

Runways:

(A) RW 16 length 4229 ft width 151 ft
---- / hdg 162

(B) RW 34 length 4229 ft width 151 ft
---- / hdg 342

Location; PASV
Day. 12 / Time. 08.55 Zulu
* Altimeter: 29.18
* Temperature: -06° c. -21.2°f.
* Wind from: 000° Speed 00 kn.
Dewpoint: -08° c.
Visibility: 10 Statute Miles.
Clouds: Few 9000 ft.
Clouds: Scattered 15000 ft.
Clouds: Broken 19000 ft.
Clouds: Broken 23000 ft.

PASV 120855Z AUTO 00000KT 10SM FEW090 SCT150 BKN190 BKN230 M06/M08 A2918 RMK AO2 SLP901 T10611076 53003


Wind - Calm.

 
 
jpsmedia worldairports.se 2019   terms of use